Huvudsida
METAR-TAF:

METAR-TAF

Flygplatser :

San Sebastián Airport

San Sebastián, Spanien

latitud: 43-21N, longitud: 001-48W, höjd: 5 m

Aktuellt väderrapport

Denna rapport gjordes för 44 minuter sedan, klockan 12:00 UTC
Vind 5 kt från nord/nordost, varierande mellan nordväst och nordost
Temperatur 25°C
Fuktighet 54%
Tryck 1018 hPa
Sikt 10 km eller mer
Inga moln under 1 500 m eller inga cumulonimbus

METAR: LESO 161200Z 02005KT 320V050 CAVOK 25/15 Q1018

Tid: 14:44 (12:44 UTC)

Väderprognos

Denna rapport gjordes för 1 timme och 44 minuter sedan, klockan 11:00 UTC
Prognos gäller från 16 kl. 12 UTC till 17 kl. 12 UTC
Vind 10 kt från nord/nordost
Sikt 10 km eller mer
Inga moln under 1 500 m eller inga cumulonimbus
Blir
från 16 kl. 19 UTC till 16 kl. 21 UTC
Vind 4 kt varierande vindriktning

TAF: LESO 161100Z 1612/1712 03010KT CAVOK TX27/1612Z TN18/1706Z BECMG 1619/1621 VRB04KT

Aktuella väderrapporter och prognoser från 4000 flygplatser (METAR- och TAF-rapporter).

De tillgängliga stationerna syns som gula och röda prickar på kartan.

För musen över prickarna för att se namnen på stationerna.

Klicka sedan för att få väderrapporter och prognoser.

För att ändra kartan: Klicka på de gröna knapparna med ett svart kors på för att zooma in; den gröna knappen med ett streck på för att zooma ut; eller på de gröna pilarna för angränsande kartor.


METAR-TAF: